createdAt,value
2022-09-18T00:03:16.219Z,99439.09
2022-09-18T00:08:13.022Z,99436.88
2022-09-18T00:13:10.045Z,99439.69
2022-09-18T00:18:07.946Z,99445.63
2022-09-18T00:23:04.612Z,99448.22
2022-09-18T00:28:01.456Z,99456.00
2022-09-18T00:32:58.250Z,99486.19
2022-09-18T00:37:55.644Z,99515.31
2022-09-18T00:42:55.101Z,99531.66
2022-09-18T00:47:52.604Z,99561.78
2022-09-18T00:52:54.833Z,99575.06
2022-09-18T00:57:56.214Z,99590.97
2022-09-18T01:02:53.276Z,99598.66
2022-09-18T01:07:57.801Z,99614.50
2022-09-18T01:12:58.465Z,99622.59
2022-09-18T01:18:00.649Z,99636.91
2022-09-18T01:23:13.835Z,99647.41
2022-09-18T01:28:16.688Z,99666.31
2022-09-18T01:33:18.092Z,99674.41
2022-09-18T01:38:16.192Z,99703.81
2022-09-18T01:43:19.455Z,99740.25
2022-09-18T01:48:19.946Z,99758.41
2022-09-18T01:53:19.208Z,99765.75
2022-09-18T01:58:22.010Z,99771.56
2022-09-18T02:03:22.761Z,99801.50
2022-09-18T02:08:22.592Z,99823.41
2022-09-18T02:13:29.009Z,99828.31
2022-09-18T02:18:30.857Z,99835.69
2022-09-18T02:23:29.248Z,99819.41
2022-09-18T02:28:29.888Z,99852.91
2022-09-18T02:33:27.445Z,99861.84
2022-09-18T02:38:26.941Z,99883.25
2022-09-18T02:43:31.364Z,99887.13
2022-09-18T02:48:39.362Z,99907.50
2022-09-18T02:53:42.471Z,99908.63
2022-09-18T02:58:45.256Z,99919.56
2022-09-18T03:03:45.356Z,99937.97
2022-09-18T03:08:44.501Z,99968.97
2022-09-18T03:13:41.974Z,99994.59
2022-09-18T03:18:38.680Z,100015.44
2022-09-18T03:23:37.185Z,100014.81
2022-09-18T03:28:48.981Z,100043.75
2022-09-18T03:33:47.193Z,100057.00
2022-09-18T03:38:44.154Z,100072.63
2022-09-18T03:43:41.819Z,100095.53
2022-09-18T03:48:41.644Z,100094.78
2022-09-18T03:53:39.495Z,100108.69
2022-09-18T03:59:02.497Z,100147.41
2022-09-18T04:04:12.685Z,100140.44
2022-09-18T04:09:29.658Z,100166.81
2022-09-18T04:14:30.870Z,100162.75
2022-09-18T04:19:29.499Z,100188.69
2022-09-18T04:24:28.478Z,100174.44
2022-09-18T04:29:25.398Z,100194.06
2022-09-18T04:34:24.049Z,100213.31
2022-09-18T04:39:23.398Z,100202.91
2022-09-18T04:44:20.329Z,100214.34
2022-09-18T04:49:18.200Z,100214.13
2022-09-18T04:54:15.697Z,100213.97
2022-09-18T04:59:19.009Z,100231.25
2022-09-18T05:04:17.098Z,100238.34
2022-09-18T05:09:23.377Z,100239.31
2022-09-18T05:14:22.343Z,100216.19
2022-09-18T05:19:22.298Z,100237.53
2022-09-18T05:24:19.155Z,100258.38
2022-09-18T05:29:19.598Z,100271.28
2022-09-18T05:34:19.161Z,100275.16
2022-09-18T05:39:17.771Z,100267.69
2022-09-18T05:44:15.209Z,100264.19
2022-09-18T05:49:11.969Z,100269.00
2022-09-18T05:54:10.798Z,100275.91
2022-09-18T05:59:12.666Z,100254.16
2022-09-18T06:04:14.730Z,100284.41
2022-09-18T06:09:35.418Z,100263.88
2022-09-18T06:14:33.102Z,100270.50
2022-09-18T06:19:31.177Z,100271.22
2022-09-18T06:24:28.996Z,100260.94
2022-09-18T06:29:38.035Z,100294.59
2022-09-18T06:34:39.673Z,100296.13
2022-09-18T06:39:38.410Z,100292.75
2022-09-18T06:44:35.143Z,100302.75
2022-09-18T06:49:35.733Z,100299.09
2022-09-18T06:54:33.491Z,100313.72
2022-09-18T06:59:31.491Z,100322.94
2022-09-18T07:04:29.684Z,100321.66
2022-09-18T07:09:28.445Z,100315.66
2022-09-18T07:14:41.841Z,100330.19
2022-09-18T07:19:40.636Z,100315.25
2022-09-18T07:24:42.918Z,100325.38
2022-09-18T07:29:39.592Z,100335.97
2022-09-18T07:34:36.407Z,100309.53
2022-09-18T07:39:33.047Z,100326.78
2022-09-18T07:45:16.611Z,100304.59
2022-09-18T07:50:15.367Z,100323.25
2022-09-18T07:55:13.518Z,100304.84
2022-09-18T08:00:14.344Z,100323.53
2022-09-18T08:05:16.776Z,100318.50
2022-09-18T08:10:21.942Z,100303.44
2022-09-18T08:16:01.190Z,100304.47
2022-09-18T08:21:19.243Z,100320.06
2022-09-18T08:26:22.307Z,100282.34
2022-09-18T08:31:22.504Z,100313.09
2022-09-18T08:36:23.240Z,100268.31
2022-09-18T08:41:41.850Z,100324.88
2022-09-18T08:46:43.516Z,100331.91
2022-09-18T08:51:46.049Z,100316.25
2022-09-18T08:56:43.002Z,100341.69
2022-09-18T09:01:52.597Z,100341.00
2022-09-18T09:12:56.510Z,100325.81
2022-09-18T09:18:01.444Z,100352.34
2022-09-18T09:23:02.212Z,100352.44
2022-09-18T09:28:03.842Z,100366.25
2022-09-18T09:33:33.190Z,100358.13
2022-09-18T09:38:54.916Z,100376.34
2022-09-18T09:43:56.824Z,100356.59
2022-09-18T09:49:00.652Z,100375.03
2022-09-18T09:54:01.396Z,100379.66
2022-09-18T09:59:08.331Z,100369.53
2022-09-18T10:04:26.353Z,100363.38
2022-09-18T10:09:35.431Z,100386.47
2022-09-18T10:14:35.493Z,100384.78
2022-09-18T10:19:37.578Z,100383.44
2022-09-18T10:24:41.190Z,100400.53
2022-09-18T10:29:40.045Z,100412.25
2022-09-18T10:34:40.795Z,100402.47
2022-09-18T10:39:47.387Z,100408.19
2022-09-18T10:44:49.501Z,100442.56
2022-09-18T10:49:54.843Z,100406.63
2022-09-18T10:55:02.818Z,100411.56
2022-09-18T11:00:18.722Z,100421.13
2022-09-18T11:05:19.748Z,100389.06
2022-09-18T11:10:20.432Z,100393.09
2022-09-18T11:15:21.690Z,100403.56
2022-09-18T11:20:26.531Z,100423.56
2022-09-18T11:25:38.578Z,100424.31
2022-09-18T11:30:55.594Z,100430.56
2022-09-18T11:35:55.937Z,100429.19
2022-09-18T11:40:54.954Z,100434.59
2022-09-18T11:46:01.345Z,100440.41
2022-09-18T11:51:01.481Z,100440.84
2022-09-18T11:56:02.540Z,100447.94
2022-09-18T12:01:06.546Z,100429.88
2022-09-18T12:06:08.862Z,100477.75
2022-09-18T12:11:11.088Z,100451.88
2022-09-18T12:16:14.125Z,100480.50
2022-09-18T12:21:16.394Z,100475.47
2022-09-18T12:26:20.184Z,100483.97
2022-09-18T12:31:24.833Z,100496.69
2022-09-18T12:36:49.847Z,100495.81
2022-09-18T12:41:56.285Z,100489.03
2022-09-18T12:47:01.179Z,100496.50
2022-09-18T12:52:02.570Z,100481.53
2022-09-18T12:57:11.944Z,100500.06
2022-09-18T13:02:18.086Z,100511.81
2022-09-18T13:07:18.140Z,100510.84
2022-09-18T13:12:17.583Z,100516.16
2022-09-18T13:17:19.661Z,100503.53
2022-09-18T13:22:20.055Z,100495.84
2022-09-18T13:27:18.191Z,100516.06
2022-09-18T13:32:19.395Z,100518.72
2022-09-18T13:37:17.609Z,100511.91
2022-09-18T13:42:14.359Z,100503.69
2022-09-18T13:47:13.501Z,100523.69
2022-09-18T13:52:29.572Z,100546.00
2022-09-18T13:57:33.377Z,100553.25
2022-09-18T14:02:33.422Z,100557.50
2022-09-18T14:07:53.044Z,100533.00
2022-09-18T14:13:04.741Z,100565.84
2022-09-18T14:18:06.984Z,100547.94
2022-09-18T14:23:37.975Z,100576.84
2022-09-18T14:28:45.891Z,100574.13
2022-09-18T14:33:43.976Z,100591.44
2022-09-18T14:38:43.438Z,100620.41
2022-09-18T14:43:49.993Z,100610.09
2022-09-18T14:48:49.969Z,100619.88
2022-09-18T14:53:49.923Z,100626.81
2022-09-18T14:58:49.878Z,100634.00
2022-09-18T15:03:51.662Z,100632.03
2022-09-18T15:08:53.014Z,100638.81
2022-09-18T15:13:50.952Z,100641.00
2022-09-18T15:18:48.782Z,100662.81
2022-09-18T15:23:45.527Z,100639.81
2022-09-18T15:28:57.879Z,100642.94
2022-09-18T15:33:56.830Z,100660.19
2022-09-18T15:38:54.901Z,100655.22
2022-09-18T15:43:52.032Z,100668.44
2022-09-18T15:48:51.468Z,100688.84
2022-09-18T15:54:01.905Z,100688.97
2022-09-18T15:58:58.992Z,100702.19
2022-09-18T16:04:09.023Z,100689.13
2022-09-18T16:09:13.935Z,100704.09
2022-09-18T16:14:29.559Z,100708.63
2022-09-18T16:19:32.297Z,100703.56
2022-09-18T16:24:34.248Z,100714.84
2022-09-18T16:29:31.511Z,100723.94
2022-09-18T16:40:27.166Z,100737.59
2022-09-18T16:40:55.586Z,100725.03
2022-09-18T16:51:31.552Z,100751.44
2022-09-18T16:56:31.858Z,100758.13
2022-09-18T17:01:39.577Z,100769.53
2022-09-18T17:06:45.314Z,100772.91
2022-09-18T17:11:42.727Z,100802.44
2022-09-18T17:16:44.774Z,100805.56
2022-09-18T17:21:44.729Z,100816.88
2022-09-18T17:26:46.182Z,100825.56
2022-09-18T17:31:44.218Z,100839.59
2022-09-18T17:36:41.044Z,100858.84
2022-09-18T17:41:38.456Z,100871.75
2022-09-18T17:46:38.118Z,100877.25
2022-09-18T17:51:36.862Z,100886.34
2022-09-18T17:56:38.564Z,100893.38
2022-09-18T18:02:06.507Z,100886.63
2022-09-18T18:07:03.864Z,100911.47
2022-09-18T18:12:00.686Z,100909.78
2022-09-18T18:17:01.233Z,100907.66
2022-09-18T18:22:00.990Z,100905.41
2022-09-18T18:26:57.718Z,100915.88
2022-09-18T18:31:54.658Z,100930.63
2022-09-18T18:36:54.563Z,100935.47
2022-09-18T18:41:51.369Z,100936.41
2022-09-18T18:46:53.349Z,100929.06
2022-09-18T18:51:51.367Z,100943.69
2022-09-18T18:56:51.532Z,100947.66
2022-09-18T19:01:48.642Z,100921.66
2022-09-18T19:06:48.309Z,100954.66
2022-09-18T19:11:47.998Z,100967.69
2022-09-18T19:16:47.235Z,100967.81
2022-09-18T19:21:44.281Z,100971.25
2022-09-18T19:26:42.804Z,100977.78
2022-09-18T19:31:43.233Z,100984.41
2022-09-18T19:36:42.696Z,100990.63
2022-09-18T19:41:42.305Z,100987.72
2022-09-18T19:46:39.289Z,100983.78
2022-09-18T19:51:37.264Z,100980.63
2022-09-18T19:56:42.849Z,100994.63
2022-09-18T20:01:41.459Z,100980.59
2022-09-18T20:06:39.867Z,101005.22
2022-09-18T20:11:38.073Z,101014.63
2022-09-18T20:16:34.920Z,101004.84
2022-09-18T20:21:32.532Z,101010.06
2022-09-18T20:26:31.864Z,101005.19
2022-09-18T20:31:29.456Z,100995.69
2022-09-18T20:36:26.526Z,101011.16
2022-09-18T20:41:29.310Z,101016.69
2022-09-18T20:46:26.949Z,101015.84
2022-09-18T20:51:28.011Z,101019.28
2022-09-18T20:56:26.196Z,101014.69
2022-09-18T21:01:27.231Z,101015.38
2022-09-18T21:06:26.026Z,101019.41
2022-09-18T21:11:23.466Z,101021.75
2022-09-18T21:16:21.478Z,101014.59
2022-09-18T21:21:18.209Z,101029.81
2022-09-18T21:26:17.611Z,101021.03
2022-09-18T21:31:14.687Z,101035.22
2022-09-18T21:36:11.616Z,101030.16
2022-09-18T21:41:12.032Z,101031.78
2022-09-18T21:46:11.347Z,101030.69
2022-09-18T21:51:09.433Z,101025.44
2022-09-18T21:56:07.206Z,101034.75
2022-09-18T22:01:08.193Z,101023.56
2022-09-18T22:06:05.889Z,101028.38
2022-09-18T22:11:06.325Z,101021.38
2022-09-18T22:16:06.450Z,101035.78
2022-09-18T22:21:04.342Z,101034.84
2022-09-18T22:26:06.270Z,101040.28
2022-09-18T22:31:07.276Z,101046.72
2022-09-18T22:36:07.688Z,101047.25
2022-09-18T22:41:06.994Z,101045.03
2022-09-18T22:46:07.276Z,101047.50
2022-09-18T22:51:08.450Z,101048.44
2022-09-18T22:56:07.987Z,101037.69
2022-09-18T23:01:11.854Z,101039.53
2022-09-18T23:06:09.272Z,101044.63
2022-09-18T23:11:11.196Z,101045.34
2022-09-18T23:16:11.751Z,101043.56
2022-09-18T23:21:10.749Z,101044.94
2022-09-18T23:26:09.491Z,101020.28
2022-09-18T23:31:07.889Z,101045.97
2022-09-18T23:36:06.095Z,101050.28
2022-09-18T23:41:05.560Z,101056.88
2022-09-18T23:46:03.238Z,101060.34
2022-09-18T23:51:00.750Z,101055.06
2022-09-18T23:56:00.964Z,101061.13
